createdAt,value
2022-10-19T00:01:10.695Z,56.45
2022-10-19T00:03:39.061Z,56.17
2022-10-19T00:06:14.665Z,56.28
2022-10-19T00:08:42.991Z,56.02
2022-10-19T00:11:11.376Z,56.15
2022-10-19T00:13:39.592Z,56.12
2022-10-19T00:16:13.568Z,55.35
2022-10-19T00:18:43.468Z,55.71
2022-10-19T00:21:13.138Z,55.31
2022-10-19T00:23:43.679Z,55.03
2022-10-19T00:26:11.968Z,55.65
2022-10-19T00:28:40.167Z,55.69
2022-10-19T00:31:12.532Z,55.57
2022-10-19T00:33:42.567Z,56.07
2022-10-19T00:36:16.340Z,56.83
2022-10-19T00:38:44.559Z,56.54
2022-10-19T00:41:12.740Z,57.06
2022-10-19T00:43:55.306Z,56.44
2022-10-19T00:46:23.507Z,56.41
2022-10-19T00:48:54.511Z,56.45
2022-10-19T00:51:22.739Z,56.92
2022-10-19T00:53:50.859Z,56.44
2022-10-19T00:56:19.153Z,56.42
2022-10-19T00:58:47.454Z,56.95
2022-10-19T01:01:18.714Z,56.83
2022-10-19T01:03:47.114Z,56.63
2022-10-19T01:06:18.198Z,56.52
2022-10-19T01:08:46.444Z,56.91
2022-10-19T01:11:24.827Z,56.78
2022-10-19T01:13:57.473Z,56.74
2022-10-19T01:16:32.804Z,56.02
2022-10-19T01:19:04.567Z,56.71
2022-10-19T01:21:37.888Z,55.96
2022-10-19T01:24:26.624Z,55.43
2022-10-19T01:27:13.638Z,56.22
2022-10-19T01:29:52.955Z,57.25
2022-10-19T01:32:24.799Z,57.42
2022-10-19T01:34:58.792Z,58.70
2022-10-19T01:37:33.505Z,59.04
2022-10-19T01:40:05.518Z,59.61
2022-10-19T01:42:37.484Z,59.92
2022-10-19T01:45:11.662Z,58.47
2022-10-19T01:47:43.166Z,58.51
2022-10-19T01:50:14.491Z,58.71
2022-10-19T01:52:43.363Z,58.61
2022-10-19T01:55:15.231Z,59.20
2022-10-19T01:57:47.583Z,60.77
2022-10-19T02:00:18.157Z,61.59
2022-10-19T02:02:47.893Z,61.20
2022-10-19T02:05:18.391Z,62.13
2022-10-19T02:07:48.922Z,61.71
2022-10-19T02:10:17.300Z,60.73
2022-10-19T02:12:45.749Z,60.50
2022-10-19T02:15:16.025Z,61.14
2022-10-19T02:17:48.057Z,61.44
2022-10-19T02:20:17.158Z,60.68
2022-10-19T02:22:45.319Z,61.00
2022-10-19T02:25:14.162Z,60.71
2022-10-19T02:27:43.148Z,61.57
2022-10-19T02:30:12.190Z,63.72
2022-10-19T02:32:40.485Z,62.05
2022-10-19T02:35:11.242Z,60.24
2022-10-19T02:37:39.495Z,59.77
2022-10-19T02:40:08.478Z,58.65
2022-10-19T02:42:38.747Z,57.20
2022-10-19T02:45:09.998Z,56.89
2022-10-19T02:47:40.223Z,56.99
2022-10-19T02:50:10.798Z,57.21
2022-10-19T02:52:38.943Z,56.98
2022-10-19T02:55:07.586Z,56.40
2022-10-19T02:57:36.266Z,57.61
2022-10-19T03:00:05.767Z,57.24
2022-10-19T03:02:33.850Z,57.03
2022-10-19T03:05:02.030Z,56.22
2022-10-19T03:07:32.985Z,56.70
2022-10-19T03:10:03.289Z,56.99
2022-10-19T03:12:34.556Z,56.53
2022-10-19T03:15:02.770Z,56.69
2022-10-19T03:17:31.965Z,57.02
2022-10-19T03:20:00.500Z,57.59
2022-10-19T03:22:28.566Z,58.14
2022-10-19T03:25:00.392Z,58.74
2022-10-19T03:27:28.663Z,59.26
2022-10-19T03:29:56.768Z,59.43
2022-10-19T03:32:25.003Z,60.11
2022-10-19T03:34:53.119Z,61.05
2022-10-19T03:37:21.371Z,61.48
2022-10-19T03:39:49.575Z,61.91
2022-10-19T03:42:19.098Z,63.03
2022-10-19T03:44:47.271Z,63.53
2022-10-19T03:47:15.343Z,63.84
2022-10-19T03:49:43.755Z,62.47
2022-10-19T03:52:11.822Z,62.34
2022-10-19T03:54:40.009Z,61.09
2022-10-19T03:57:08.101Z,61.80
2022-10-19T03:59:37.636Z,62.16
2022-10-19T04:02:05.741Z,62.46
2022-10-19T04:04:33.851Z,62.37
2022-10-19T04:07:02.068Z,62.36
2022-10-19T04:09:30.260Z,62.21
2022-10-19T04:11:58.335Z,62.23
2022-10-19T04:14:32.206Z,60.81
2022-10-19T04:17:02.643Z,60.87
2022-10-19T04:19:35.237Z,60.92
2022-10-19T04:22:03.547Z,60.57
2022-10-19T04:24:31.626Z,60.66
2022-10-19T04:26:59.779Z,60.32
2022-10-19T04:29:29.901Z,60.14
2022-10-19T04:31:59.233Z,60.64
2022-10-19T04:34:28.823Z,60.28
2022-10-19T04:36:59.590Z,59.89
2022-10-19T04:39:28.043Z,60.28
2022-10-19T04:41:56.427Z,60.41
2022-10-19T04:46:57.876Z,62.13
2022-10-19T04:49:26.120Z,61.87
2022-10-19T04:51:55.740Z,61.04
2022-10-19T04:54:24.049Z,60.29
2022-10-19T04:56:53.952Z,59.89
2022-10-19T04:59:22.392Z,61.02
2022-10-19T05:01:50.518Z,62.09
2022-10-19T05:04:18.773Z,61.19
2022-10-19T05:06:47.010Z,61.17
2022-10-19T05:09:16.698Z,61.98
2022-10-19T05:11:45.001Z,64.37
2022-10-19T05:14:13.063Z,63.02
2022-10-19T05:16:41.198Z,62.18
2022-10-19T05:19:13.907Z,61.69
2022-10-19T05:21:42.111Z,63.51
2022-10-19T05:24:13.219Z,63.43
2022-10-19T05:26:46.017Z,63.18
2022-10-19T05:29:14.794Z,62.35
2022-10-19T05:31:43.059Z,61.19
2022-10-19T05:34:11.253Z,63.80
2022-10-19T05:36:40.948Z,63.84
2022-10-19T05:39:10.213Z,64.51
2022-10-19T05:41:38.374Z,61.34
2022-10-19T05:44:08.203Z,60.05
2022-10-19T05:46:36.368Z,60.86
2022-10-19T05:49:04.579Z,60.35
2022-10-19T05:51:35.516Z,59.89
2022-10-19T05:54:04.036Z,61.26
2022-10-19T05:56:32.974Z,60.41
2022-10-19T05:59:02.443Z,61.22
2022-10-19T06:01:32.368Z,61.28
2022-10-19T06:04:01.029Z,63.12
2022-10-19T06:06:29.343Z,63.87
2022-10-19T06:08:59.147Z,63.15
2022-10-19T06:11:28.252Z,62.54
2022-10-19T06:13:57.678Z,61.24
2022-10-19T06:16:26.654Z,60.31
2022-10-19T06:18:56.577Z,59.62
2022-10-19T06:21:26.272Z,58.99
2022-10-19T06:23:54.938Z,58.14
2022-10-19T06:26:25.155Z,58.94
2022-10-19T06:28:55.951Z,59.62
2022-10-19T06:31:24.077Z,59.30
2022-10-19T06:33:52.306Z,59.71
2022-10-19T06:36:23.204Z,58.59
2022-10-19T06:38:53.253Z,60.18
2022-10-19T06:41:24.995Z,63.83
2022-10-19T06:43:54.286Z,62.06
2022-10-19T06:46:23.616Z,60.68
2022-10-19T06:48:52.706Z,59.68
2022-10-19T06:51:22.738Z,63.26
2022-10-19T06:53:54.319Z,63.55
2022-10-19T06:56:25.811Z,62.10
2022-10-19T06:58:53.990Z,62.38
2022-10-19T07:01:22.221Z,60.60
2022-10-19T07:03:51.866Z,60.57
2022-10-19T07:06:20.061Z,59.89
2022-10-19T07:08:49.766Z,58.97
2022-10-19T07:11:19.092Z,60.00
2022-10-19T07:13:47.255Z,62.85
2022-10-19T07:16:20.634Z,60.98
2022-10-19T07:18:50.346Z,61.30
2022-10-19T07:21:18.722Z,61.39
2022-10-19T07:23:48.240Z,62.10
2022-10-19T07:26:19.552Z,60.88
2022-10-19T07:28:49.125Z,60.70
2022-10-19T07:31:20.342Z,62.44
2022-10-19T07:33:48.589Z,62.87
2022-10-19T07:36:16.808Z,62.18
2022-10-19T07:38:44.971Z,62.73
2022-10-19T07:41:25.197Z,61.75
2022-10-19T07:44:00.279Z,64.13
2022-10-19T07:47:54.820Z,62.43
2022-10-19T07:50:25.416Z,63.36
2022-10-19T07:53:04.808Z,61.86
2022-10-19T07:55:35.403Z,63.65
2022-10-19T07:58:03.848Z,61.83
2022-10-19T08:00:32.630Z,59.98
2022-10-19T08:05:51.569Z,60.47
2022-10-19T08:08:20.017Z,63.52
2022-10-19T08:10:48.479Z,62.39
2022-10-19T08:13:16.930Z,60.45
2022-10-19T08:15:46.488Z,60.31
2022-10-19T08:18:16.944Z,59.87
2022-10-19T08:20:46.087Z,61.36
2022-10-19T08:23:14.729Z,62.50
2022-10-19T08:25:43.250Z,62.03
2022-10-19T08:28:12.125Z,61.00
2022-10-19T08:30:40.756Z,61.61
2022-10-19T08:33:12.748Z,60.20
2022-10-19T08:35:42.717Z,60.25
2022-10-19T08:38:11.195Z,61.64
2022-10-19T08:40:39.781Z,61.44
2022-10-19T08:43:15.007Z,62.57
2022-10-19T08:45:44.363Z,60.87
2022-10-19T08:48:25.284Z,60.74
2022-10-19T08:50:55.737Z,61.82
2022-10-19T08:53:33.024Z,62.74
2022-10-19T08:56:22.190Z,63.22
2022-10-19T08:59:14.732Z,61.89
2022-10-19T09:01:49.858Z,64.21
2022-10-19T09:04:23.963Z,62.08
2022-10-19T09:07:22.149Z,61.31
2022-10-19T09:09:57.576Z,59.39
2022-10-19T09:12:46.424Z,60.88
2022-10-19T09:15:20.375Z,59.11
2022-10-19T09:17:49.138Z,60.53
2022-10-19T09:20:21.128Z,59.36
2022-10-19T09:23:01.663Z,59.78
2022-10-19T09:25:32.036Z,56.87
2022-10-19T09:28:14.056Z,58.74
2022-10-19T09:30:44.413Z,58.96
2022-10-19T09:33:20.471Z,58.14
2022-10-19T09:35:51.056Z,57.44
2022-10-19T09:38:25.388Z,57.28
2022-10-19T09:40:53.922Z,56.59
2022-10-19T09:43:23.111Z,58.18
2022-10-19T09:45:55.199Z,56.67
2022-10-19T09:48:30.465Z,57.99
2022-10-19T09:51:01.654Z,58.47
2022-10-19T09:53:31.847Z,57.51
2022-10-19T09:56:04.549Z,58.21
2022-10-19T09:58:33.455Z,59.61
2022-10-19T10:01:03.324Z,63.96
2022-10-19T10:03:35.380Z,64.31
2022-10-19T10:06:07.718Z,63.72
2022-10-19T10:08:40.484Z,63.26
2022-10-19T10:11:13.838Z,64.14
2022-10-19T10:13:45.330Z,63.78
2022-10-19T10:16:17.940Z,62.68
2022-10-19T10:18:56.048Z,62.64
2022-10-19T10:21:26.436Z,62.02
2022-10-19T10:24:06.105Z,61.88
2022-10-19T10:26:40.050Z,62.24
2022-10-19T10:29:19.802Z,63.39
2022-10-19T10:31:50.732Z,64.73
2022-10-19T10:34:45.571Z,64.79
2022-10-19T10:37:22.972Z,64.24
2022-10-19T10:39:57.921Z,64.27
2022-10-19T10:42:32.356Z,63.40
2022-10-19T10:45:01.416Z,63.88
2022-10-19T10:47:31.543Z,63.52
2022-10-19T10:50:02.955Z,64.43
2022-10-19T10:52:33.128Z,62.70
2022-10-19T10:55:15.703Z,62.52
2022-10-19T10:57:48.252Z,60.71
2022-10-19T11:00:19.149Z,59.72
2022-10-19T11:02:53.058Z,57.98
2022-10-19T11:05:26.665Z,58.99
2022-10-19T11:08:00.291Z,60.36
2022-10-19T11:10:35.453Z,59.82
2022-10-19T11:13:11.878Z,60.31
2022-10-19T11:15:48.774Z,58.33
2022-10-19T11:18:21.675Z,60.10
2022-10-19T11:21:00.477Z,58.28
2022-10-19T11:23:37.702Z,57.38
2022-10-19T11:26:19.803Z,59.29
2022-10-19T11:29:03.945Z,59.04
2022-10-19T11:31:45.838Z,58.97
2022-10-19T11:34:33.770Z,61.50
2022-10-19T11:37:15.967Z,60.66
2022-10-19T11:39:55.573Z,61.40
2022-10-19T11:42:38.012Z,60.20
2022-10-19T11:45:17.223Z,59.42
2022-10-19T11:48:00.181Z,58.97
2022-10-19T11:50:37.651Z,59.20
2022-10-19T11:53:13.560Z,56.72
2022-10-19T11:55:51.360Z,56.46
2022-10-19T11:58:53.448Z,57.01
2022-10-19T12:01:34.065Z,56.76
2022-10-19T12:04:17.684Z,54.78
2022-10-19T12:06:56.951Z,54.54
2022-10-19T12:09:35.276Z,55.82
2022-10-19T12:12:19.928Z,56.86
2022-10-19T12:14:53.181Z,56.28
2022-10-19T12:17:29.387Z,55.28
2022-10-19T12:20:02.938Z,57.35
2022-10-19T12:22:33.495Z,58.55
2022-10-19T12:25:03.423Z,58.92
2022-10-19T12:27:37.168Z,58.85
2022-10-19T12:30:14.518Z,58.97
2022-10-19T12:32:54.532Z,57.98
2022-10-19T12:35:34.968Z,57.84
2022-10-19T12:38:08.574Z,59.10
2022-10-19T12:40:44.727Z,57.87
2022-10-19T12:43:18.449Z,56.91
2022-10-19T12:45:55.954Z,57.43
2022-10-19T12:48:27.663Z,58.31
2022-10-19T12:51:12.465Z,57.68
2022-10-19T12:53:44.500Z,57.61
2022-10-19T12:56:24.133Z,56.78
2022-10-19T12:59:00.130Z,56.23
2022-10-19T13:01:44.506Z,57.50
2022-10-19T13:04:15.436Z,58.42
2022-10-19T13:06:46.339Z,59.33
2022-10-19T13:09:25.877Z,58.86
2022-10-19T13:12:29.279Z,60.24
2022-10-19T13:14:59.193Z,58.05
2022-10-19T13:17:46.412Z,57.73
2022-10-19T13:20:49.581Z,59.66
2022-10-19T13:23:42.199Z,58.09
2022-10-19T13:26:34.238Z,58.44
2022-10-19T13:29:03.378Z,57.13
2022-10-19T13:31:33.211Z,57.85
2022-10-19T13:34:11.815Z,58.41
2022-10-19T13:36:40.503Z,59.57
2022-10-19T13:39:16.059Z,59.65
2022-10-19T13:41:52.829Z,58.87
2022-10-19T13:44:31.069Z,58.35
2022-10-19T13:47:25.061Z,57.63
2022-10-19T13:50:17.109Z,59.30
2022-10-19T13:53:09.082Z,59.12
2022-10-19T13:56:28.722Z,60.86
2022-10-19T13:59:31.845Z,59.24
2022-10-19T14:02:37.878Z,58.18
2022-10-19T14:05:25.236Z,59.46
2022-10-19T14:08:09.993Z,58.86
2022-10-19T14:13:27.499Z,59.29
2022-10-19T14:15:58.696Z,59.60
2022-10-19T14:18:29.195Z,58.37
2022-10-19T14:21:00.919Z,57.35
2022-10-19T14:23:31.239Z,59.89
2022-10-19T14:26:01.981Z,60.42
2022-10-19T14:28:31.354Z,58.38
2022-10-19T14:31:01.901Z,57.71
2022-10-19T14:33:33.609Z,58.31
2022-10-19T14:36:04.042Z,58.29
2022-10-19T14:38:36.377Z,57.80
2022-10-19T14:41:06.117Z,58.65
2022-10-19T14:43:36.148Z,59.92
2022-10-19T14:46:12.547Z,58.53
2022-10-19T14:48:42.629Z,59.24
2022-10-19T14:51:24.549Z,59.79
2022-10-19T14:53:57.439Z,58.75
2022-10-19T14:56:34.951Z,59.17
2022-10-19T14:59:07.420Z,60.37
2022-10-19T15:01:36.878Z,60.26
2022-10-19T15:04:06.058Z,59.64
2022-10-19T15:06:42.438Z,58.34
2022-10-19T15:09:36.897Z,58.16
2022-10-19T15:12:18.086Z,59.07
2022-10-19T15:14:47.429Z,59.91
2022-10-19T15:17:27.647Z,60.05
2022-10-19T15:19:58.528Z,60.69
2022-10-19T15:22:40.888Z,60.09
2022-10-19T15:25:28.817Z,59.11
2022-10-19T15:27:57.847Z,59.82
2022-10-19T15:30:29.340Z,59.46
2022-10-19T15:33:11.604Z,60.50
2022-10-19T15:35:42.067Z,58.65
2022-10-19T15:38:20.663Z,58.32
2022-10-19T15:40:49.581Z,59.98
2022-10-19T15:43:50.920Z,59.24
2022-10-19T15:46:26.040Z,59.23
2022-10-19T15:48:55.715Z,59.19
2022-10-19T15:51:55.065Z,59.40
2022-10-19T15:54:24.979Z,60.20
2022-10-19T15:56:55.653Z,60.18
2022-10-19T15:59:24.449Z,60.30
2022-10-19T16:01:56.117Z,62.50
2022-10-19T16:04:24.873Z,62.38
2022-10-19T16:06:53.442Z,62.87
2022-10-19T16:09:25.852Z,62.69
2022-10-19T16:11:57.181Z,62.56
2022-10-19T16:14:26.676Z,62.68
2022-10-19T16:17:04.207Z,64.11
2022-10-19T16:19:32.809Z,63.24
2022-10-19T16:22:01.353Z,63.03
2022-10-19T16:24:31.325Z,63.93
2022-10-19T16:26:59.993Z,62.99
2022-10-19T16:29:29.138Z,62.85
2022-10-19T16:31:57.797Z,63.22
2022-10-19T16:34:26.451Z,61.63
2022-10-19T16:36:55.021Z,62.09
2022-10-19T16:39:25.630Z,61.82
2022-10-19T16:41:55.692Z,62.89
2022-10-19T16:44:24.283Z,62.59
2022-10-19T16:46:52.783Z,62.71
2022-10-19T16:49:21.309Z,63.78
2022-10-19T16:51:52.008Z,61.81
2022-10-19T16:54:23.459Z,63.07
2022-10-19T16:56:51.907Z,61.57
2022-10-19T16:59:21.994Z,62.09
2022-10-19T17:01:50.760Z,61.86
2022-10-19T17:04:19.287Z,61.75
2022-10-19T17:06:48.133Z,61.71
2022-10-19T17:12:09.508Z,63.07
2022-10-19T17:14:42.254Z,62.20
2022-10-19T17:17:12.093Z,61.29
2022-10-19T17:19:40.866Z,60.87
2022-10-19T17:22:09.585Z,61.50
2022-10-19T17:24:39.449Z,61.24
2022-10-19T17:27:10.931Z,59.87
2022-10-19T17:29:41.103Z,61.80
2022-10-19T17:32:09.921Z,61.40
2022-10-19T17:34:38.520Z,60.91
2022-10-19T17:37:07.192Z,61.88
2022-10-19T17:39:38.815Z,60.57
2022-10-19T17:42:07.569Z,62.76
2022-10-19T17:44:36.167Z,62.47
2022-10-19T17:47:06.712Z,62.18
2022-10-19T17:49:36.017Z,63.06
2022-10-19T17:52:08.029Z,63.75
2022-10-19T17:54:43.719Z,63.02
2022-10-19T17:57:25.853Z,63.25
2022-10-19T17:59:55.723Z,62.65
2022-10-19T18:02:26.485Z,64.03
2022-10-19T18:04:55.495Z,64.77
2022-10-19T18:07:26.583Z,64.63
2022-10-19T18:09:55.541Z,63.85
2022-10-19T18:12:26.935Z,63.41
2022-10-19T18:14:56.468Z,63.80
2022-10-19T18:17:27.867Z,62.33
2022-10-19T18:19:57.373Z,62.27
2022-10-19T18:22:26.545Z,62.21
2022-10-19T18:24:55.742Z,62.25
2022-10-19T18:27:24.779Z,62.33
2022-10-19T18:29:54.067Z,62.96
2022-10-19T18:32:23.427Z,61.82
2022-10-19T18:34:56.213Z,63.41
2022-10-19T18:37:28.382Z,62.23
2022-10-19T18:40:00.861Z,60.98
2022-10-19T18:42:33.833Z,61.32
2022-10-19T18:45:03.453Z,61.17
2022-10-19T18:47:32.690Z,60.49
2022-10-19T18:50:03.219Z,61.59
2022-10-19T18:52:36.425Z,60.46
2022-10-19T18:55:09.050Z,59.92
2022-10-19T18:57:39.160Z,59.43
2022-10-19T19:00:12.111Z,59.77
2022-10-19T19:02:46.697Z,59.88
2022-10-19T19:05:17.979Z,59.48
2022-10-19T19:07:46.917Z,60.59
2022-10-19T19:10:15.941Z,60.28
2022-10-19T19:12:44.643Z,61.07
2022-10-19T19:15:15.671Z,59.48
2022-10-19T19:17:44.451Z,58.86
2022-10-19T19:20:13.300Z,58.84
2022-10-19T19:22:43.324Z,59.95
2022-10-19T19:25:11.961Z,59.80
2022-10-19T19:27:40.442Z,59.35
2022-10-19T19:30:11.253Z,59.94
2022-10-19T19:32:39.821Z,59.04
2022-10-19T19:35:08.636Z,57.90
2022-10-19T19:37:37.643Z,57.96
2022-10-19T19:40:09.377Z,58.58
2022-10-19T19:42:37.905Z,58.03
2022-10-19T19:45:07.139Z,58.71
2022-10-19T19:47:35.869Z,57.75
2022-10-19T19:50:04.833Z,60.07
2022-10-19T19:52:40.239Z,59.68
2022-10-19T19:55:11.025Z,58.10
2022-10-19T19:57:39.625Z,58.37
2022-10-19T20:00:09.510Z,58.18
2022-10-19T20:02:40.711Z,59.74
2022-10-19T20:05:10.181Z,59.12
2022-10-19T20:07:38.813Z,58.34
2022-10-19T20:10:08.190Z,57.50
2022-10-19T20:12:38.055Z,59.92
2022-10-19T20:15:08.034Z,59.11
2022-10-19T20:17:36.855Z,58.72
2022-10-19T20:20:06.391Z,58.33
2022-10-19T20:22:35.123Z,58.68
2022-10-19T20:25:03.348Z,58.23
2022-10-19T20:27:32.232Z,57.27
2022-10-19T20:30:02.159Z,59.08
2022-10-19T20:32:31.973Z,59.17
2022-10-19T20:35:00.428Z,58.13
2022-10-19T20:37:30.301Z,58.54
2022-10-19T20:39:58.768Z,59.23
2022-10-19T20:42:27.158Z,57.73
2022-10-19T20:44:56.495Z,57.70
2022-10-19T20:47:26.425Z,58.87
2022-10-19T20:49:54.903Z,58.31
2022-10-19T20:52:24.448Z,58.83
2022-10-19T20:54:52.913Z,59.54
2022-10-19T20:57:21.667Z,60.03
2022-10-19T20:59:50.609Z,59.04
2022-10-19T21:02:19.058Z,58.94
2022-10-19T21:04:48.951Z,57.55
2022-10-19T21:07:17.481Z,59.61
2022-10-19T21:09:45.928Z,59.05
2022-10-19T21:12:14.346Z,57.59
2022-10-19T21:14:43.209Z,57.62
2022-10-19T21:17:11.339Z,57.64
2022-10-19T21:19:39.790Z,56.35
2022-10-19T21:22:14.015Z,57.15
2022-10-19T21:24:42.649Z,56.67
2022-10-19T21:27:11.312Z,56.73
2022-10-19T21:29:39.855Z,55.61
2022-10-19T21:32:08.284Z,55.61
2022-10-19T21:34:36.695Z,54.87
2022-10-19T21:37:05.237Z,54.77
2022-10-19T21:39:35.077Z,55.92
2022-10-19T21:42:03.781Z,54.85
2022-10-19T21:44:32.163Z,55.46
2022-10-19T21:47:03.721Z,57.01
2022-10-19T21:49:32.266Z,55.78
2022-10-19T21:52:03.620Z,55.81
2022-10-19T21:54:32.248Z,56.31
2022-10-19T21:57:03.151Z,56.97
2022-10-19T21:59:31.672Z,57.54
2022-10-19T22:02:00.200Z,57.72
2022-10-19T22:04:28.882Z,57.92
2022-10-19T22:06:59.612Z,57.72
2022-10-19T22:09:28.175Z,56.44
2022-10-19T22:11:56.587Z,56.55
2022-10-19T22:14:26.501Z,56.15
2022-10-19T22:16:56.145Z,56.43
2022-10-19T22:19:26.352Z,57.85
2022-10-19T22:21:57.525Z,56.68
2022-10-19T22:24:26.005Z,56.24
2022-10-19T22:26:54.437Z,56.11
2022-10-19T22:29:22.841Z,57.01
2022-10-19T22:31:52.690Z,58.29
2022-10-19T22:34:21.164Z,58.13
2022-10-19T22:36:49.730Z,58.25
2022-10-19T22:39:18.522Z,58.36
2022-10-19T22:41:46.648Z,58.09
2022-10-19T22:44:15.131Z,57.72
2022-10-19T22:46:43.557Z,56.71
2022-10-19T22:49:13.586Z,56.44
2022-10-19T22:51:42.189Z,57.31
2022-10-19T22:54:10.572Z,57.51
2022-10-19T22:56:39.061Z,58.33
2022-10-19T22:59:08.331Z,57.78
2022-10-19T23:01:38.258Z,57.79
2022-10-19T23:04:07.201Z,59.48
2022-10-19T23:06:36.673Z,58.68
2022-10-19T23:09:05.440Z,58.20
2022-10-19T23:11:33.562Z,59.18
2022-10-19T23:14:02.042Z,59.34
2022-10-19T23:16:30.476Z,59.06
2022-10-19T23:18:58.815Z,58.03
2022-10-19T23:21:27.248Z,57.92
2022-10-19T23:23:57.148Z,56.85
2022-10-19T23:26:26.095Z,58.34
2022-10-19T23:28:54.198Z,57.46
2022-10-19T23:31:25.103Z,58.55
2022-10-19T23:33:54.542Z,59.38
2022-10-19T23:36:24.622Z,59.05
2022-10-19T23:38:54.145Z,60.11
2022-10-19T23:41:24.146Z,59.02
2022-10-19T23:43:52.767Z,59.75
2022-10-19T23:46:21.368Z,58.91
2022-10-19T23:48:49.849Z,60.38
2022-10-19T23:51:20.560Z,59.04
2022-10-19T23:53:51.096Z,58.94
2022-10-19T23:56:21.566Z,58.48
2022-10-19T23:58:51.958Z,60.56
